• Join FlightAware (Why Join?)
  • Login
  • US Flag GB Flag 
23:55 EDT


 

Airport Tracker/Info


-or-


 

Live Flight TrackerFlight Track Log ✈ FSR411 ✈ 14-Aug-2013 ✈ KCMI - KIND

Flight Track Log - Related Links

Times and Time Zones

All times are in EDT time to prevent confusion due to time zone crossing. See the FSR411 flight status page for this flight to view local times or setup timezone preferences in your user account.

Time Position Orientation Groundspeed Altitude Reporting Facility
EDT Latitude Longitude Course Direction KTS MPH feet Rate Location/Type
09:08 40.0753 -88.2258 98° East 245 282 11,000  Level Indianapolis Center
09:09 40.0611 -88.1308 101° East 306 352 7,500 -540 Descending Indianapolis Center
09:10 40.0494 -88.0267 98° East 292 336 10,000 1,680 Climbing Chicago Center
09:11 40.0325 -87.8975 100° East 356 410 10,900 480 Climbing Chicago Center
09:12 40.0128 -87.7572 100° East 388 447 11,100 60 Climbing Chicago Center
09:13 39.9941 -87.9879 90° East  Level Estimated
09:14 39.9802 -87.8885 98° East  Level FlightAware Approximate
09:14 39.9872 -87.5886 101° East 395 455 11,100  Level Indianapolis Center
09:15 39.9689 -87.4483 100° East 395 455 11,100  Level Indianapolis Center
09:16 39.9494 -87.3097 100° East 392 451 11,100  Level Indianapolis Center
09:17 39.9283 -87.1692 101° East 394 453 11,100  Level Indianapolis Center
09:18 39.9089 -87.0292 100° East 396 456 11,100 -60 Level Indianapolis Center
09:19 39.8897 -86.8894 100° East 394 453 11,000 -840 Descending Indianapolis Center
09:20 39.8350 -86.7636 119° Southeast 333 383 9,400 -2,220 Descending Indianapolis Center
09:21 39.7722 -86.6969 141° Southeast 304 350 6,500 -2,460 Descending Indianapolis Center
09:22 39.7022 -86.6608 158° South 277 319 4,400 -1,260 Descending Indianapolis Center
09:23 39.6431 -86.6350 161° South 239 275 4,000 -420 Descending Indianapolis Center
09:24 39.6039 -86.5886 138° Southeast 207 238 3,600 -540 Descending Indianapolis Center
09:25 39.5814 -86.5236 114° Southeast 184 212 3,000 -360 Descending Indianapolis Center
09:26 39.5964 -86.4697 70° East 169 194 2,900 -60 Descending Indianapolis Center
09:27 39.6194 -86.4311 52° Northeast 152 175 2,900 -240 Level Indianapolis Center
09:28 39.6464 -86.3967 45° Northeast 142 163 2,500 -600 Descending Indianapolis Center
09:29 39.6719 -86.3653 43° Northeast 134 154 1,700 -720 Descending Indianapolis Center
09:30 39.6997 -86.3289 45° Northeast 125 144 1,000 -540 Descending Indianapolis Center
09:31 39.7217 -86.3011 44° Northeast 123 142 700 -300 Descending Indianapolis Center